createdAt,value
2022-08-05T00:01:28.489Z,4.47
2022-08-05T00:04:23.627Z,6.32
2022-08-05T00:07:32.154Z,7.38
2022-08-05T00:10:30.118Z,4.63
2022-08-05T00:13:39.139Z,7.05
2022-08-05T00:16:36.043Z,6.28
2022-08-05T00:20:01.892Z,4.63
2022-08-05T00:23:02.248Z,10.13
2022-08-05T00:25:55.385Z,6.38
2022-08-05T00:28:51.459Z,9.25
2022-08-05T00:32:11.039Z,6.63
2022-08-05T00:35:06.162Z,9.68
2022-08-05T00:38:00.482Z,7.38
2022-08-05T00:40:58.969Z,5.57
2022-08-05T00:43:53.519Z,7.57
2022-08-05T00:46:46.617Z,6.50
2022-08-05T00:49:51.447Z,6.15
2022-08-05T00:52:46.890Z,6.85
2022-08-05T00:55:42.821Z,6.32
2022-08-05T00:58:38.172Z,6.18
2022-08-05T01:01:48.754Z,7.28
2022-08-05T01:04:42.556Z,7.78
2022-08-05T01:07:36.355Z,7.32
2022-08-05T01:10:36.846Z,6.78
2022-08-05T01:13:58.539Z,5.30
2022-08-05T01:16:55.612Z,5.55
2022-08-05T01:20:01.915Z,5.75
2022-08-05T01:23:15.316Z,6.28
2022-08-05T01:26:33.433Z,4.65
2022-08-05T01:29:32.701Z,3.80
2022-08-05T01:32:33.377Z,4.03
2022-08-05T01:35:50.953Z,4.90
2022-08-05T01:38:48.483Z,4.75
2022-08-05T01:41:44.605Z,5.57
2022-08-05T01:44:41.347Z,5.57
2022-08-05T01:47:39.683Z,5.07
2022-08-05T01:50:40.723Z,6.85
2022-08-05T01:53:57.064Z,6.50
2022-08-05T01:58:09.771Z,5.47
2022-08-05T02:00:11.856Z,5.38
2022-08-05T02:03:24.312Z,7.50
2022-08-05T02:06:37.523Z,4.55
2022-08-05T02:09:31.652Z,6.63
2022-08-05T02:12:35.270Z,5.70
2022-08-05T02:15:35.383Z,10.68
2022-08-05T02:18:34.903Z,7.15
2022-08-05T02:21:38.068Z,9.05
2022-08-05T02:24:40.661Z,8.60
2022-08-05T02:27:58.121Z,6.75
2022-08-05T02:30:59.632Z,8.38
2022-08-05T02:33:57.522Z,6.63
2022-08-05T02:36:55.411Z,6.82
2022-08-05T02:39:51.745Z,7.18
2022-08-05T02:42:52.880Z,6.45
2022-08-05T02:45:52.294Z,11.32
2022-08-05T02:48:49.435Z,5.95
2022-08-05T02:52:03.546Z,8.45
2022-08-05T02:54:58.671Z,11.38
2022-08-05T02:58:20.022Z,10.48
2022-08-05T03:01:14.539Z,8.45
2022-08-05T03:04:15.754Z,7.68
2022-08-05T03:07:09.063Z,9.75
2022-08-05T03:10:24.835Z,10.52
2022-08-05T03:13:19.144Z,7.45
2022-08-05T03:16:21.252Z,7.35
2022-08-05T03:19:29.494Z,7.55
2022-08-05T03:22:32.122Z,7.13
2022-08-05T03:26:03.470Z,7.93
2022-08-05T03:28:40.735Z,9.18
2022-08-05T03:31:55.813Z,10.55
2022-08-05T03:34:51.062Z,10.45
2022-08-05T03:37:46.212Z,8.57
2022-08-05T03:40:45.374Z,8.65
2022-08-05T03:44:09.335Z,6.32
2022-08-05T03:46:53.691Z,7.53
2022-08-05T03:49:52.046Z,9.50
2022-08-05T03:55:34.376Z,7.00
2022-08-05T03:56:17.129Z,6.55
2022-08-05T03:59:24.959Z,7.88
2022-08-05T04:02:39.182Z,7.13
2022-08-05T04:05:37.266Z,6.53
2022-08-05T04:08:36.562Z,7.93
2022-08-05T04:11:50.437Z,9.27
2022-08-05T04:14:43.923Z,6.72
2022-08-05T04:17:57.154Z,8.88
2022-08-05T04:20:55.831Z,9.15
2022-08-05T04:24:01.715Z,9.23
2022-08-05T04:26:59.625Z,5.88
2022-08-05T04:29:53.619Z,6.40
2022-08-05T04:32:46.766Z,7.18
2022-08-05T04:36:15.738Z,6.88
2022-08-05T04:38:55.903Z,5.93
2022-08-05T04:41:52.403Z,5.10
2022-08-05T04:44:45.608Z,6.30
2022-08-05T04:47:38.724Z,6.45
2022-08-05T04:51:03.097Z,5.80
2022-08-05T04:53:58.001Z,6.05
2022-08-05T04:56:58.916Z,3.58
2022-08-05T04:59:52.536Z,4.63
2022-08-05T05:02:45.690Z,5.28
2022-08-05T05:06:39.324Z,8.57
2022-08-05T05:08:52.506Z,6.35
2022-08-05T05:11:54.370Z,5.43
2022-08-05T05:14:50.781Z,5.38
2022-08-05T05:17:57.019Z,5.70
2022-08-05T05:20:50.520Z,6.63
2022-08-05T05:24:03.762Z,6.60
2022-08-05T05:26:59.152Z,5.88
2022-08-05T05:30:04.350Z,5.68
2022-08-05T05:33:00.493Z,8.65
2022-08-05T05:35:56.889Z,6.55
2022-08-05T05:38:50.633Z,8.30
2022-08-05T05:41:43.972Z,7.30
2022-08-05T05:44:49.220Z,7.35
2022-08-05T05:48:06.210Z,7.47
2022-08-05T05:50:57.914Z,7.85
2022-08-05T05:53:57.723Z,7.78
2022-08-05T05:56:52.717Z,13.43
2022-08-05T05:59:45.516Z,7.72
2022-08-05T06:02:41.341Z,8.07
2022-08-05T06:05:35.125Z,8.50
2022-08-05T06:08:32.510Z,9.10
2022-08-05T06:11:26.197Z,8.45
2022-08-05T06:14:22.672Z,8.20
2022-08-05T06:17:24.648Z,7.20
2022-08-05T06:20:26.201Z,9.55
2022-08-05T06:23:22.073Z,8.32
2022-08-05T06:26:24.025Z,6.10
2022-08-05T06:29:43.103Z,7.50
2022-08-05T06:32:31.857Z,8.30
2022-08-05T06:36:07.160Z,7.95
2022-08-05T06:38:40.051Z,6.20
2022-08-05T06:41:41.316Z,10.50
2022-08-05T06:44:35.856Z,8.27
2022-08-05T06:48:12.019Z,7.07
2022-08-05T06:50:44.114Z,8.68
2022-08-05T06:53:42.951Z,6.32
2022-08-05T06:56:54.905Z,6.03
2022-08-05T07:00:03.134Z,5.35
2022-08-05T07:02:57.802Z,4.90
2022-08-05T07:05:52.317Z,5.47
2022-08-05T07:08:52.063Z,7.00
2022-08-05T07:11:51.555Z,7.47
2022-08-05T07:15:02.336Z,6.25
2022-08-05T07:18:08.669Z,5.68
2022-08-05T07:21:06.946Z,5.20
2022-08-05T07:24:01.981Z,5.63
2022-08-05T07:26:55.784Z,4.53
2022-08-05T07:30:24.482Z,4.10
2022-08-05T07:33:09.022Z,4.78
2022-08-05T07:36:20.282Z,3.95
2022-08-05T07:39:24.873Z,6.63
2022-08-05T07:42:31.857Z,5.57
2022-08-05T07:45:56.412Z,7.00
2022-08-05T07:49:01.973Z,7.05
2022-08-05T07:51:55.650Z,8.13
2022-08-05T07:54:49.348Z,8.73
2022-08-05T07:57:58.766Z,11.00
2022-08-05T08:00:56.026Z,8.18
2022-08-05T08:03:51.303Z,11.32
2022-08-05T08:06:45.115Z,9.40
2022-08-05T08:09:39.915Z,8.68
2022-08-05T08:12:49.365Z,7.75
2022-08-05T08:16:34.791Z,7.47
2022-08-05T08:18:56.797Z,5.88
2022-08-05T08:21:51.094Z,7.80
2022-08-05T08:24:51.348Z,6.72
2022-08-05T08:27:47.948Z,8.55
2022-08-05T08:30:47.512Z,7.40
2022-08-05T08:33:42.653Z,7.65
2022-08-05T08:36:47.703Z,5.78
2022-08-05T08:39:49.515Z,6.07
2022-08-05T08:42:51.067Z,5.35
2022-08-05T08:45:48.130Z,7.85
2022-08-05T08:49:06.196Z,4.13
2022-08-05T08:52:13.468Z,5.07
2022-08-05T08:55:13.214Z,5.43
2022-08-05T08:58:10.172Z,6.85
2022-08-05T09:01:07.788Z,6.30
2022-08-05T09:04:04.323Z,7.03
2022-08-05T09:07:10.663Z,5.85
2022-08-05T09:10:12.985Z,5.35
2022-08-05T09:13:08.645Z,8.18
2022-08-05T09:16:02.261Z,8.57
2022-08-05T09:18:55.915Z,10.50
2022-08-05T09:22:22.562Z,7.70
2022-08-05T09:25:13.735Z,4.78
2022-08-05T09:28:21.163Z,7.80
2022-08-05T09:31:43.748Z,7.53
2022-08-05T09:34:50.730Z,7.57
2022-08-05T09:38:13.076Z,6.88
2022-08-05T09:41:07.176Z,10.18
2022-08-05T09:44:03.613Z,9.93
2022-08-05T09:47:12.473Z,6.40
2022-08-05T09:50:08.284Z,7.90
2022-08-05T09:53:02.048Z,5.25
2022-08-05T09:56:04.556Z,6.82
2022-08-05T09:59:06.907Z,6.75
2022-08-05T10:02:00.064Z,6.40
2022-08-05T10:04:55.249Z,6.38
2022-08-05T10:08:34.718Z,5.18
2022-08-05T10:11:07.553Z,4.60
2022-08-05T10:14:22.253Z,5.35
2022-08-05T10:17:39.944Z,5.63
2022-08-05T10:20:31.058Z,5.90
2022-08-05T10:23:55.158Z,4.65
2022-08-05T10:26:51.245Z,5.38
2022-08-05T10:30:41.263Z,5.68
2022-08-05T10:33:02.918Z,6.45
2022-08-05T10:35:59.918Z,3.97
2022-08-05T10:38:58.448Z,7.93
2022-08-05T10:42:01.142Z,4.13
2022-08-05T10:44:57.772Z,4.35
2022-08-05T10:48:29.948Z,5.55
2022-08-05T10:51:22.087Z,5.70
2022-08-05T10:54:29.948Z,5.20
2022-08-05T10:57:31.896Z,3.78
2022-08-05T11:00:30.872Z,5.20
2022-08-05T11:03:26.926Z,4.03
2022-08-05T11:06:19.807Z,4.50
2022-08-05T11:09:24.417Z,4.45
2022-08-05T11:12:54.262Z,5.00
2022-08-05T11:16:01.080Z,3.97
2022-08-05T11:20:11.339Z,5.20
2022-08-05T11:22:42.326Z,4.47
2022-08-05T11:26:05.499Z,4.63
2022-08-05T11:28:53.379Z,7.15
2022-08-05T11:31:56.609Z,5.65
2022-08-05T11:34:54.420Z,3.80
2022-08-05T11:38:28.067Z,5.10
2022-08-05T11:41:56.287Z,5.43
2022-08-05T11:44:52.859Z,4.18
2022-08-05T11:47:50.377Z,4.80
2022-08-05T11:50:49.266Z,4.20
2022-08-05T11:53:42.808Z,4.03
2022-08-05T11:56:50.119Z,4.25
2022-08-05T11:59:49.795Z,5.07
2022-08-05T12:02:44.615Z,5.05
2022-08-05T12:05:40.031Z,4.43
2022-08-05T12:08:51.123Z,3.75
2022-08-05T12:11:45.464Z,4.72
2022-08-05T12:14:43.277Z,4.72
2022-08-05T12:18:00.783Z,4.00
2022-08-05T12:20:54.484Z,5.68
2022-08-05T12:24:05.130Z,5.70
2022-08-05T12:26:59.165Z,6.35
2022-08-05T12:30:05.275Z,5.50
2022-08-05T12:32:58.735Z,3.47
2022-08-05T12:36:08.155Z,3.50
2022-08-05T12:39:05.519Z,3.38
2022-08-05T12:42:00.912Z,3.92
2022-08-05T12:45:03.550Z,3.70
2022-08-05T12:48:32.166Z,3.33
2022-08-05T12:52:14.291Z,4.00
2022-08-05T12:54:45.377Z,3.97
2022-08-05T12:58:38.769Z,4.10
2022-08-05T13:02:02.757Z,5.05
2022-08-05T13:04:10.142Z,3.58
2022-08-05T13:07:11.080Z,4.18
2022-08-05T13:10:13.038Z,3.50
2022-08-05T13:13:10.647Z,4.53
2022-08-05T13:16:25.185Z,3.97
2022-08-05T13:19:24.799Z,3.38
2022-08-05T13:22:28.363Z,3.67
2022-08-05T13:25:52.412Z,4.30
2022-08-05T13:28:35.942Z,4.03
2022-08-05T13:32:04.482Z,3.22
2022-08-05T13:34:51.999Z,4.97
2022-08-05T13:37:46.416Z,3.78
2022-08-05T13:40:51.554Z,3.67
2022-08-05T13:43:54.580Z,3.08
2022-08-05T13:47:04.492Z,3.22
2022-08-05T13:50:04.497Z,4.32
2022-08-05T13:52:59.316Z,4.78
2022-08-05T13:56:00.214Z,4.57
2022-08-05T13:58:55.172Z,5.93
2022-08-05T14:01:59.122Z,7.60
2022-08-05T14:05:11.438Z,8.98
2022-08-05T14:08:20.316Z,8.73
2022-08-05T14:11:22.194Z,8.00
2022-08-05T14:14:15.306Z,8.18
2022-08-05T14:17:19.277Z,9.50
2022-08-05T14:20:17.452Z,8.95
2022-08-05T14:23:12.457Z,9.15
2022-08-05T14:26:08.658Z,10.40
2022-08-05T14:29:22.142Z,9.00
2022-08-05T14:32:26.932Z,8.65
2022-08-05T14:35:22.850Z,8.95
2022-08-05T14:38:32.341Z,8.23
2022-08-05T14:41:27.642Z,7.68
2022-08-05T14:44:21.933Z,9.43
2022-08-05T14:47:15.237Z,10.10
2022-08-05T14:50:17.694Z,10.30
2022-08-05T14:53:13.301Z,9.82
2022-08-05T14:56:09.252Z,10.35
2022-08-05T14:59:05.503Z,11.10
2022-08-05T15:01:59.985Z,10.65
2022-08-05T15:04:53.021Z,11.43
2022-08-05T15:08:08.843Z,10.25
2022-08-05T15:10:59.352Z,11.43
2022-08-05T15:13:54.710Z,11.75
2022-08-05T15:16:48.160Z,12.77
2022-08-05T15:19:48.996Z,9.55
2022-08-05T15:22:42.523Z,9.90
2022-08-05T15:25:50.910Z,11.27
2022-08-05T15:28:45.341Z,8.77
2022-08-05T15:31:52.396Z,10.75
2022-08-05T15:34:46.057Z,7.65
2022-08-05T15:38:32.299Z,7.80
2022-08-05T15:41:04.163Z,8.77
2022-08-05T15:44:05.630Z,9.20
2022-08-05T15:47:03.568Z,7.68
2022-08-05T15:49:59.448Z,5.95
2022-08-05T15:52:55.302Z,6.93
2022-08-05T15:56:02.986Z,5.97
2022-08-05T15:58:58.336Z,4.60
2022-08-05T16:01:53.705Z,5.07
2022-08-05T16:04:49.324Z,4.10
2022-08-05T16:07:46.246Z,4.32
2022-08-05T16:10:40.158Z,4.63
2022-08-05T16:13:35.099Z,4.22
2022-08-05T16:16:28.538Z,4.05
2022-08-05T16:20:03.034Z,3.22
2022-08-05T16:22:38.030Z,3.40
2022-08-05T16:25:32.298Z,2.70
2022-08-05T16:28:28.148Z,4.22
2022-08-05T16:31:21.210Z,2.92
2022-08-05T16:34:15.054Z,6.28
2022-08-05T16:38:03.553Z,2.15
2022-08-05T16:40:28.549Z,2.38
2022-08-05T16:43:23.686Z,2.58
2022-08-05T16:46:24.245Z,3.55
2022-08-05T16:49:18.659Z,4.38
2022-08-05T16:52:14.293Z,2.95
2022-08-05T16:55:08.296Z,1.58
2022-08-05T16:58:03.529Z,2.33
2022-08-05T17:01:02.585Z,4.20
2022-08-05T17:03:59.990Z,1.98
2022-08-05T17:06:54.219Z,2.13
2022-08-05T17:09:58.201Z,1.88
2022-08-05T17:12:52.481Z,1.27
2022-08-05T17:15:48.873Z,2.72
2022-08-05T17:18:46.480Z,3.13
2022-08-05T17:21:41.353Z,2.80
2022-08-05T17:24:56.719Z,2.70
2022-08-05T17:27:51.502Z,1.23
2022-08-05T17:30:51.907Z,1.20
2022-08-05T17:33:48.393Z,2.03
2022-08-05T17:36:44.815Z,2.17
2022-08-05T17:39:38.365Z,1.80
2022-08-05T17:42:41.830Z,3.17
2022-08-05T17:45:43.161Z,2.85
2022-08-05T17:48:37.583Z,3.50
2022-08-05T17:51:40.476Z,1.75
2022-08-05T17:54:35.509Z,4.72
2022-08-05T17:57:28.934Z,5.35
2022-08-05T18:00:28.662Z,3.35
2022-08-05T18:03:58.950Z,3.85
2022-08-05T18:06:40.166Z,3.38
2022-08-05T18:09:59.066Z,3.13
2022-08-05T18:12:54.573Z,1.67
2022-08-05T18:15:47.521Z,2.67
2022-08-05T18:18:48.059Z,3.55
2022-08-05T18:22:09.475Z,3.63
2022-08-05T18:24:58.784Z,2.72
2022-08-05T18:27:52.867Z,2.28
2022-08-05T18:30:50.901Z,3.55
2022-08-05T18:33:47.011Z,1.88
2022-08-05T18:36:44.461Z,2.45
2022-08-05T18:40:29.564Z,3.55
2022-08-05T18:42:50.900Z,3.05
2022-08-05T18:45:45.387Z,1.83
2022-08-05T18:48:41.736Z,2.92
2022-08-05T18:52:04.928Z,2.63
2022-08-05T18:55:02.651Z,5.43
2022-08-05T18:58:03.166Z,2.33
2022-08-05T19:00:56.974Z,3.92
2022-08-05T19:03:55.444Z,2.08
2022-08-05T19:06:50.698Z,3.95
2022-08-05T19:09:45.954Z,3.30
2022-08-05T19:12:41.395Z,2.65
2022-08-05T19:16:00.257Z,3.67
2022-08-05T19:18:50.572Z,2.38
2022-08-05T19:21:44.555Z,2.17
2022-08-05T19:24:37.799Z,3.85
2022-08-05T19:27:49.804Z,2.70
2022-08-05T19:30:48.886Z,2.60
2022-08-05T19:33:55.672Z,1.52
2022-08-05T19:36:50.831Z,2.15
2022-08-05T19:39:45.670Z,4.35
2022-08-05T19:43:04.890Z,4.30
2022-08-05T19:45:59.634Z,2.95
2022-08-05T19:48:52.543Z,2.63
2022-08-05T19:52:08.606Z,3.17
2022-08-05T19:55:00.505Z,2.28
2022-08-05T19:58:19.749Z,3.53
2022-08-05T20:01:14.518Z,3.40
2022-08-05T20:04:09.907Z,3.47
2022-08-05T20:07:03.915Z,1.73
2022-08-05T20:10:10.768Z,3.35
2022-08-05T20:13:06.494Z,2.28
2022-08-05T20:16:02.219Z,3.78
2022-08-05T20:18:59.294Z,2.33
2022-08-05T20:21:54.261Z,3.28
2022-08-05T20:24:48.490Z,2.75
2022-08-05T20:27:42.695Z,2.72
2022-08-05T20:30:36.178Z,3.40
2022-08-05T20:33:29.832Z,3.17
2022-08-05T20:36:25.910Z,2.72
2022-08-05T20:39:19.426Z,3.03
2022-08-05T20:42:12.496Z,3.22
2022-08-05T20:45:06.448Z,2.90
2022-08-05T20:47:59.816Z,2.30
2022-08-05T20:50:53.614Z,2.17
2022-08-05T20:53:55.228Z,3.67
2022-08-05T20:56:50.304Z,4.00
2022-08-05T21:00:10.521Z,3.00
2022-08-05T21:03:00.035Z,4.70
2022-08-05T21:05:55.577Z,2.22
2022-08-05T21:08:53.955Z,2.25
2022-08-05T21:12:07.293Z,3.63
2022-08-05T21:15:00.515Z,2.28
2022-08-05T21:17:54.087Z,3.50
2022-08-05T21:20:47.665Z,3.70
2022-08-05T21:23:40.464Z,2.65
2022-08-05T21:26:35.837Z,2.65
2022-08-05T21:29:31.775Z,2.28
2022-08-05T21:32:27.014Z,2.58
2022-08-05T21:35:30.316Z,2.63
2022-08-05T21:38:40.113Z,2.90
2022-08-05T21:41:35.423Z,2.20
2022-08-05T21:44:28.446Z,3.97
2022-08-05T21:47:55.075Z,3.47
2022-08-05T21:50:34.802Z,2.70
2022-08-05T21:53:30.871Z,2.83
2022-08-05T21:56:27.388Z,3.13
2022-08-05T21:59:22.600Z,2.33
2022-08-05T22:02:17.505Z,2.67
2022-08-05T22:05:11.542Z,2.83
2022-08-05T22:08:04.632Z,1.73
2022-08-05T22:10:58.836Z,2.22
2022-08-05T22:14:19.487Z,3.60
2022-08-05T22:17:06.683Z,2.30
2022-08-05T22:20:13.220Z,3.47
2022-08-05T22:23:25.420Z,2.97
2022-08-05T22:26:55.642Z,2.38
2022-08-05T22:29:49.522Z,5.38
2022-08-05T22:32:48.869Z,2.90
2022-08-05T22:35:49.208Z,3.85
2022-08-05T22:38:43.121Z,1.65
2022-08-05T22:42:09.720Z,3.53
2022-08-05T22:44:56.780Z,5.72
2022-08-05T22:47:55.382Z,4.97
2022-08-05T22:50:56.266Z,4.10
2022-08-05T22:53:49.948Z,2.47
2022-08-05T22:56:43.955Z,2.65
2022-08-05T22:59:51.881Z,2.28
2022-08-05T23:02:47.963Z,3.83
2022-08-05T23:05:43.754Z,3.45
2022-08-05T23:08:37.426Z,4.78
2022-08-05T23:11:32.800Z,1.75
2022-08-05T23:14:31.730Z,4.38
2022-08-05T23:17:34.300Z,4.35
2022-08-05T23:20:32.216Z,2.53
2022-08-05T23:23:29.962Z,3.10
2022-08-05T23:26:26.798Z,2.40
2022-08-05T23:29:20.697Z,4.32
2022-08-05T23:32:14.162Z,1.48
2022-08-05T23:35:08.528Z,1.75
2022-08-05T23:38:02.946Z,2.97
2022-08-05T23:40:58.985Z,4.78
2022-08-05T23:44:05.978Z,5.38
2022-08-05T23:47:02.551Z,7.18
2022-08-05T23:50:09.552Z,2.97
2022-08-05T23:53:03.343Z,3.35
2022-08-05T23:55:57.945Z,4.03
2022-08-05T23:58:52.483Z,2.55
